Notice: Undefined index: name in /home/meteotorkc/www/pwsWD/metar_load_funct.php on line 61

Notice: Undefined index: humidity_percent in /home/meteotorkc/www/pwsWD/metar_load_funct.php on line 103
Weather34 Metar Aviation Weather Data Popup
14°C Temp
'.PHP_EOL;
12°C Punto de rocío
% Humedad
Temperatura
10 KM/H
6 MPH
5 KTS
280°
West

Velocidad del viento
Parcialmente nublado
Presión 1022.92 (hPa)- 30.21 (in)
Visibilidad 6.2 (mi) - 10 (km)

Condiciones actuales
LEXJ
localidad 35(km)
Metar:
LEXJ 250130Z AUTO 28005KT 9999 FEW035 BKN048 14/12 Q1023

Notice: Undefined offset: 1 in /home/meteotorkc/www/pwsWD/metar_popup.php on line 285

Notice: Undefined offset: 1 in /home/meteotorkc/www/pwsWD/metar_popup.php on line 287

Warning: gmmktime() expects parameter 1 to be int, string given in /home/meteotorkc/www/pwsWD/metar_popup.php on line 288
Thu 1st January 01:00 am

Aeropuerto
  Metar Aviation API Data Provided by https://www.checkwx.com/